SSEC Globe Logo

Space Science and Engineering Center

Surface Aviation Observations

KAIG 251715Z AUTO 28009G14KT 10SM SCT021 BKN044 OVC070 14/12
     A3004 RMK AO2 P0001 T01440122=
KAIG 251655Z AUTO 27013G17KT 7SM -RA BKN023 BKN028 OVC048
     15/11 A3004 RMK AO2 T01460110=
KC29 251715Z AUTO 29011G17KT 10SM BKN031 BKN041 OVC048 17/10
     A3011 RMK AO1 T01670096=
KC29 251655Z AUTO 30010KT 10SM BKN031 BKN041 OVC050 17/10
     A3011 RMK AO1 T01720104=
KBCK 251715Z AUTO 28011G16KT 10SM SCT030 BKN047 BKN060 18/09
     A3009 RMK AO2 T01770088=
KBCK 251655Z AUTO 27012KT 10SM SCT028 BKN047 OVC060 18/09
     A3009 RMK AO2 T01770091=
KUBE 251715Z AUTO 32014G24KT 10SM SCT009 OVC014 12/10 A3009
     RMK AO2 LTG DSNT NE=
KUBE 251655Z AUTO 30013G21KT 5SM -RA BKN011 OVC015 12/11
     A3009 RMK AO2=
KPVB 251715Z AUTO 28012KT 10SM BKN033 OVC041 16/10 A3015 RMK
     AO1 T01630102=
KPVB 251655Z AUTO 27011G18KT 10SM SCT029 SCT036 OVC043 17/10
     A3015 RMK AO1 T01690103=
KEZS 251715Z AUTO 29009KT 10SM SCT034 SCT043 BKN075 20/11
     A3001 RMK AO2 T01950105=
KEZS 251655Z AUTO 28007KT 10SM SCT033 BKN070 OVC085 19/11
     A3001 RMK AO2 T01860107=
KARV 251715Z AUTO 26004KT 10SM SCT028 SCT032 SCT038 17/11
     A3001 RMK AO2 T01660108=
KARV 251655Z AUTO 32004KT 10SM SCT028 BKN033 BKN039 15/10
     A3002 RMK AO2 T01520104=
KASX 251653Z AUTO 00000KT 10SM FEW011 SCT055 OVC080 16/12
     A3003 RMK AO2 SLP171 T01560117 PNO $=
KATW 251645Z 27011G19KT 10SM BKN030 BKN050 17/09 A3002=
KAUW 251709Z AUTO 29009KT 10SM SCT021 SCT034 OVC060 16/11
     A3004 RMK AO2 T01560106=
KAUW 251654Z AUTO 27009KT 10SM BKN021 BKN028 OVC038 14/11
     A3004 RMK AO2 SLP178 T01440106=
KBUU 251715Z AUTO 27012G19KT 10SM SCT041 SCT060 SCT070 22/14
     A3009 RMK AO2 T02180143=
KBUU 251655Z AUTO 28010G16KT 10SM SCT041 SCT048 SCT060 21/14
     A3009 RMK AO2 T02060140=
KCLI 251715Z AUTO 28011G19KT 10SM SCT035 BKN044 OVC070 17/10
     A3002 RMK AO2=
KCLI 251655Z AUTO 30015G19KT 10SM SCT033 BKN055 BKN090 18/11
     A3002 RMK AO2 P0001=
KCMY 251715Z AUTO 26010G14KT 240V300 10SM OVC060 16/11 A3012
     RMK AO2 T01630108=
KCMY 251655Z AUTO 28012G16KT 10SM OVC060 16/11 A3012 RMK AO2
     T01600110=
KCWA 251647Z 26010KT 10SM BKN021 OVC029 15/11 A3007=
KDLL 251715Z AUTO 27007KT 10SM SCT027 OVC034 15/09 A3011 RMK
     AO2 T01510092=
KDLL 251655Z AUTO 28012G19KT 10SM SCT025 OVC034 16/09 A3010
     RMK AO2 T01550086=
KEAU 251656Z 27011KT 10SM BKN026 OVC033 15/10 A3009 RMK AO2
     SLP192 T01500100=
KEFT 251715Z AUTO 29011G18KT 10SM SCT033 SCT040 BKN060 17/08
     A3012 RMK AO2=
KEFT 251655Z AUTO 26018KT 10SM SCT033 BKN042 BKN060 17/08
     A3012 RMK AO2=
KEGV 251715Z AUTO 30005KT 10SM BKN035 BKN075 17/08 A3001 RMK
     AO2 T01710082=
KEGV 251655Z AUTO 00000KT 10SM SCT035 SCT045 SCT055 16/07
     A3001 RMK AO2 T01560071=
KENW 251653Z 27014KT 10SM SCT045 BKN055 19/09 A3008 RMK AO2
     SLP186 T01890094=
KETB 251715Z AUTO 28011G18KT 10SM SCT035 SCT046 BKN060 18/09
     A3005 RMK AO2=
KETB 251655Z AUTO 28013G22KT 10SM SCT035 BKN042 BKN048 18/10
     A3005 RMK AO2=
KFLD 251653Z AUTO 28011G23KT 10SM SCT033 BKN048 19/10 A3005
     RMK AO2 SLP175 T01940100=
KGRB 251653Z 28011KT 10SM FEW033 BKN043 OVC080 19/11 A3001
     RMK AO2 SLP163 T01890111=
KHYR 251713Z AUTO 00000KT 3SM -TSRA BR FEW026 BKN043 OVC070
     12/11 A3006 RMK AO2 RAB1655 TSB12 P0016 T01220106=
KHYR 251710Z AUTO 00000KT 1 1/4SM RA BR FEW019 BKN041 OVC070
     12/11 A3005 RMK AO2 VIS 1/2V5 RAB1655 P0016 T01170106=
KHYR 251703Z AUTO VRB05G16KT 1SM +RA BR FEW016 BKN027 OVC050
     12/10 A3006 RMK AO2 RAB1655 P0013 T01170100=
KHYR 251659Z AUTO 29009G16KT 260V320 2 1/2SM -RA BR SCT020
     BKN031 OVC050 12/10 A3006 RMK AO2 RAB55 P0004
     T01220100=
KHYR 251653Z AUTO 31007KT 250V340 10SM FEW016 BKN022 BKN031
     14/11 A3006 RMK AO2 RAE17 SLP181 P0003 T01440111=
KHYR 251649Z AUTO VRB03KT 10SM FEW016 BKN022 BKN031 15/12
     A3005 RMK AO2 RAE17 P0003=
KISW 251654Z AUTO 30010G16KT 10SM FEW021 SCT030 BKN037 17/11
     A3009 RMK AO2 SLP192 T01720106=
KISW 251645Z AUTO 31009G18KT 10SM FEW021 BKN030 OVC037 16/10
     A3009 RMK AO2 T01560100=
KJVL 251645Z 27013G18KT 10SM SCT035 BKN044 BKN055 20/10
     A3010=
KLNL 251715Z AUTO 00000KT 10SM SCT033 17/09 A3003 RMK AO2
     T01740091=
KLNL 251655Z AUTO 34004KT 10SM CLR 17/10 A3003 RMK AO2
     T01690100=
KLNR 251656Z AUTO 28009KT 10SM SCT034 SCT043 OVC050 17/09
     A3012 RMK AO2 SLP194 T01670094=
KLSE 251653Z 27010KT 10SM FEW027 SCT033 BKN050 21/11 A3012
     RMK AO2 SLP195 T02060111=
KLUM 251715Z AUTO 25012G16KT 2 1/2SM BR BKN013 BKN020 OVC033
     14/12 A3011 RMK AO2 T01410119=
KLUM 251655Z AUTO 26012G17KT 10SM BKN020 BKN026 OVC031 14/11
     A3011 RMK AO2 T01430112=
KMDZ 251715Z AUTO 27008KT 10SM BKN019 OVC024 14/10 A3006 RMK
     AO2 T01380102=
KMDZ 251655Z AUTO 30006KT 10SM SCT017 BKN021 OVC050 14/10
     A3007 RMK AO2 T01360101=
KMFI 251701Z AUTO 27009KT 10SM SCT023 BKN030 OVC065 16/10
     A3006 RMK AO2 T01610100 TSNO=
KMFI 251654Z AUTO 28009KT 10SM SCT021 BKN027 OVC065 16/10
     A3006 RMK AO2 SLP184 T01560100 TSNO=
KMKE 251652Z 27011G23KT 10SM SCT043 BKN055 20/09 A3006 RMK
     AO2 SLP178 T02000089=
KMRJ 251715Z AUTO 26015G18KT 10SM BKN028 BKN036 OVC050 17/11
     A3013 RMK AO2=
KMRJ 251655Z AUTO 26013G17KT 10SM SCT029 BKN048 OVC050 16/11
     A3013 RMK AO2=
KMSN 251653Z 30008G15KT 260V330 10SM SCT029 BKN039 BKN050
     16/09 A3010 RMK AO2 SLP193 T01610094=
KMTW 251656Z AUTO 31011KT 10SM BKN035 OVC044 19/10 A3002 RMK
     AO2 SLP183 T01940100=
KMWC 251645Z 27015G23KT 10SM BKN039 19/07 A3007=
KOEO 251715Z AUTO 29014G19KT 10SM SCT025 BKN035 OVC080 16/11
     A3015 RMK AO2 T01570109=
KOEO 251655Z AUTO 29009G16KT 10SM SCT016 BKN026 OVC042 15/12
     A3015 RMK AO2 T01450120=
KOSH 251653Z 29013G18KT 10SM FEW031 SCT045 SCT070 19/11
     A3004 RMK AO2 SLP167 T01890111=
KOVS 251653Z AUTO 26010KT 10SM FEW035 OVC044 17/09 A3014 RMK
     AO2 SLP209 T01670089=
KPBH 251715Z AUTO 27004KT 10SM SCT018 BKN027 OVC034 15/12
     A3003 RMK AO2 LTG DSNT NW T01460117=
KPBH 251655Z AUTO 26004KT 10SM BKN018 OVC025 14/11 A3004 RMK
     AO2 T01430114=
KPCZ 251715Z AUTO 26013G18KT 10SM BKN027 18/10 A3006 RMK AO2
     T01800103=
KPCZ 251655Z AUTO 26012G22KT 10SM BKN027 18/11 A3006 RMK AO2
     T01790105=
KPDC 251715Z AUTO 27011G15KT 10SM BKN031 OVC040 15/08 A3015
     RMK AO2 T01510083=
KPDC 251655Z AUTO 30009KT 10SM OVC038 16/08 A3015 RMK AO2
     T01570081=
KRAC 251653Z AUTO 27013G22KT 10SM FEW043 20/08 A3008 RMK AO2
     SLP186 T02000083=
KRCX 251715Z AUTO 23005KT 4SM HZ SCT022 BKN049 OVC060 15/12
     A3007 RMK AO2 T01450119=
KRCX 251655Z AUTO 26006KT 10SM SCT018 SCT034 OVC048 16/11
     A3008 RMK AO2 T01580111=
KRHI 251653Z AUTO 30007KT 10SM FEW044 SCT100 17/11 A3003 RMK
     AO2 SLP171 T01670106=
KRNH 251715Z AUTO 31012G18KT 2 1/2SM +RA SCT010 BKN018
     OVC030 14/10 A3013 RMK AO2 P0002 T01360100=
KRNH 251655Z AUTO 29013G20KT 10SM BKN018 OVC027 14/10 A3012
     RMK AO2 T01400102=
KRPD 251715Z AUTO 30012G20KT 10SM BKN013 OVC020 14/12 A3009
     RMK AO2 LTG DSNT N P0002 T01390115=
KRPD 251655Z AUTO 25012G17KT 3SM +RA SCT013 BKN019 OVC024
     15/12 A3009 RMK AO2 P0003 T01490117=
KRRL 251715Z AUTO 29005KT 10SM SCT021 BKN039 OVC050 14/12
     A3005 RMK AO2 T01400121=
KRRL 251655Z AUTO 27008KT 7SM RA SCT014 BKN022 OVC042 13/12
     A3006 RMK AO2 T01320119=
KRYV 251715Z AUTO 27011G16KT 10SM SCT032 BKN039 BKN047 18/11
     A3008 RMK AO2 T01840112=
KRYV 251655Z AUTO 26013G18KT 10SM SCT032 SCT039 BKN048 18/11
     A3008 RMK AO2 T01780105=
KRZN 251710Z AUTO 32013G23KT 7SM -DZ SCT017 BKN024 OVC032
     13/10 A3010 RMK AO2 T01330104=
KRZN 251650Z AUTO 31009G14KT 10SM BKN017 BKN024 OVC055 14/11
     A3010 RMK AO2 P0001 T01350112=
KSBM 251653Z AUTO 29013KT 10SM FEW035 SCT047 BKN070 18/11
     A3002 RMK AO2 SLP167 T01830111=
KSTE 251715Z AUTO 26010G14KT 10SM SCT024 OVC033 15/09 A3007
     RMK AO2 T01540089=
KSTE 251655Z AUTO 29010G16KT 10SM SCT019 OVC033 15/09 A3007
     RMK AO2 T01490087=
KSUE 251656Z AUTO 28007KT 10SM 16/11 RMK AO2 SLPNO T01610106
     PNO $=
KUES 251645Z 27012G20KT 10SM SCT038 SCT047 18/09 A3008=
KUNU 251715Z AUTO 26009G14KT 240V300 10SM SCT029 SCT038
     17/10 A3009 RMK AO2 T01700102=
KUNU 251655Z AUTO 29008G14KT 250V310 10SM SCT029 SCT036
     17/11 A3009 RMK AO2 T01670105=
KVOK 251658Z 27009KT 10SM FEW025 BKN050 BKN200 16/12 A3010
     RMK AO2A SLP198=
KVOK 251658Z 27009KT 10SM FEW025 BKN050 BKN200 16/12 A3010
     RMK AO2A SLP198=
METAR KVOK 251658Z 27009KT 10SM FEW025 BKN050 BKN200 16/12
     A3010 RMK AO2A SLP198=
METAR KVOK 251658Z 27009KT 10SM FEW025 BKN050 BKN200 16/12
     A3010 RMK AO2A SLP198=
KY50 251656Z AUTO 30010G19KT 10SM OVC028 17/10 A3008 RMK AO2
     SLP212 T01720100=
KY51 251715Z AUTO 27008KT 10SM SCT020 SCT029 OVC037 14/11
     A3014 RMK AO1 T01410111=
KY51 251655Z AUTO 27008KT 10SM SCT018 BKN025 OVC036 14/12
     A3014 RMK AO1 T01420117=
KDBQ 251653Z 30016G20KT 10SM BKN033 OVC040 16/09 A3018 RMK
     AO2 SLP221 T01560089=
KRST 251654Z 31013KT 10SM BKN016 OVC023 14/11 A3018 RMK AO2
     SLP221 T01390106=
KMSP 251721Z 32014KT 10SM SCT030 OVC040 17/09 A3015 RMK AO2
     T01720089=
KMSP 251653Z 30014G22KT 10SM OVC028 15/08 A3016 RMK AO2
     SLP214 T01500083=
KRFD 251654Z 30015G22KT 10SM FEW048 SCT055 BKN070 20/08
     A3013 RMK AO2 SLP202 T02000083 $=
KORD 251651Z 28012G22KT 10SM BKN049 21/07 A3010 RMK AO2
     SLP191 T02060072=